Terminal Aerodrome Forecast
Issued by NWS

Home | Current Version | Previous Version | Text Only | Print | Product List | Glossary On
Versions: 1 2 3 4 5 6 7 8 9 10 11 12 13 14 15 16
643
FTUS43 KTOP 041134
TAFMHK
TAF
KMHK 041134Z 0412/0512 VRB03KT 1SM BR BKN005
      TEMPO 0412/0414 6SM BKN020
     FM042000 28006KT 5SM BR SCT008
     FM042200 20005KT P6SM SKC=

USA.gov is the U.S. government's official web portal to all federal, state and local government web resources and services.